Terminal Aerodrome Forecast
Issued by NWS

Home | Current Version | Previous Version | Text Only | Print | Product List | Glossary On
Versions: 1 2 3 4 5 6 7 8 9 10 11 12 13 14 15 16
217
FTUS43 KMQT 091141 AAA
TAFCMX
TAF AMD
KCMX 091141Z 0912/1012 33010KT 1SM -SHSN OVC010
     FM092000 31010KT 3SM -SHSN OVC020
     FM100100 30009KT 2SM -SHSN OVC020
     FM100300 31010KT 1SM -SHSN OVC020
     FM100700 31009KT 2SM -SHSN OVC020=

USA.gov is the U.S. government's official web portal to all federal, state and local government web resources and services.